createdAt,value
2023-01-15T01:22:06.991Z,4.07
2023-01-15T01:25:31.620Z,3.93
2023-01-15T01:28:50.555Z,3.93
2023-01-15T01:31:20.106Z,4.07
2023-01-15T01:35:04.415Z,3.80
2023-01-15T01:37:33.072Z,4.17
2023-01-15T01:40:08.590Z,4.23
2023-01-15T03:27:59.724Z,3.17
2023-01-15T03:30:44.780Z,3.27
2023-01-15T03:33:13.240Z,2.83
2023-01-15T03:35:51.679Z,3.10
2023-01-15T03:38:37.454Z,3.30
2023-01-15T03:46:29.867Z,3.20
2023-01-15T03:49:44.392Z,3.20
2023-01-15T03:52:36.535Z,3.03
2023-01-15T04:03:54.018Z,3.50
2023-01-15T04:06:56.868Z,3.50
2023-01-15T04:18:54.877Z,3.10
2023-01-15T04:21:24.506Z,3.23
2023-01-15T04:23:52.578Z,3.20
2023-01-15T04:26:20.756Z,3.20
2023-01-15T04:29:01.035Z,3.37
2023-01-15T04:31:53.621Z,3.30
2023-01-15T04:34:21.669Z,3.20
2023-01-15T04:36:49.518Z,3.10
2023-01-15T04:39:17.372Z,2.90
2023-01-15T04:42:16.005Z,3.70
2023-01-15T04:44:53.221Z,3.30
2023-01-15T04:48:42.406Z,2.90
2023-01-15T04:51:12.395Z,3.17
2023-01-15T04:53:51.372Z,3.33
2023-01-15T04:56:38.588Z,2.90
2023-01-15T04:59:12.540Z,3.30
2023-01-15T05:01:46.374Z,3.00
2023-01-15T05:05:17.401Z,2.80
2023-01-15T05:13:58.025Z,3.10
2023-01-15T05:16:33.400Z,2.77
2023-01-15T05:23:57.474Z,2.73
2023-01-15T05:26:25.748Z,2.90
2023-01-15T05:29:08.437Z,3.17
2023-01-15T06:07:24.267Z,3.13
2023-01-15T06:24:47.969Z,3.23
2023-01-15T06:32:25.769Z,3.23
2023-01-15T06:42:01.541Z,3.50
2023-01-15T06:44:48.026Z,3.53
2023-01-15T07:03:54.663Z,3.70
2023-01-15T07:06:46.934Z,3.50
2023-01-15T07:12:36.145Z,3.43
2023-01-15T07:15:04.335Z,3.80
2023-01-15T07:17:32.395Z,3.77
2023-01-15T07:20:03.905Z,3.70
2023-01-15T07:22:32.055Z,4.17
2023-01-15T07:24:59.979Z,4.00
2023-01-15T07:27:27.997Z,3.97
2023-01-15T07:29:56.012Z,3.70
2023-01-15T07:32:25.047Z,3.60
2023-01-15T07:34:52.787Z,3.70
2023-01-15T07:37:20.626Z,4.13
2023-01-15T07:39:48.439Z,3.63
2023-01-15T07:42:35.604Z,3.93
2023-01-15T07:45:25.774Z,4.17
2023-01-15T07:48:13.806Z,4.40
2023-01-15T07:50:49.064Z,4.30
2023-01-15T07:53:51.459Z,4.33
2023-01-15T07:56:23.126Z,4.50
2023-01-15T07:58:51.099Z,4.53
2023-01-15T08:01:19.140Z,4.13
2023-01-15T08:04:12.594Z,4.20
2023-01-15T08:06:40.468Z,4.77
2023-01-15T08:13:49.014Z,4.33
2023-01-15T08:16:30.027Z,4.50
2023-01-15T08:19:48.300Z,4.47
2023-01-15T08:22:19.721Z,4.67
2023-01-15T08:24:51.837Z,4.33
2023-01-15T08:31:52.240Z,4.47
2023-01-15T08:34:20.491Z,4.43
2023-01-15T08:36:50.322Z,4.07
2023-01-15T08:39:18.841Z,4.40
2023-01-15T08:41:48.430Z,3.60
2023-01-15T08:44:17.112Z,4.23
2023-01-15T08:46:45.252Z,4.20
2023-01-15T08:49:12.861Z,4.33
2023-01-15T08:51:40.488Z,4.10
2023-01-15T08:54:08.047Z,4.60
2023-01-15T08:56:42.527Z,4.10
2023-01-15T08:59:40.190Z,4.17
2023-01-15T09:02:09.455Z,3.90
2023-01-15T09:05:04.173Z,3.80
2023-01-15T09:07:39.960Z,3.87
2023-01-15T09:10:10.371Z,3.50
2023-01-15T09:12:45.507Z,3.77
2023-01-15T09:15:13.768Z,3.60
2023-01-15T09:17:44.185Z,3.67
2023-01-15T09:20:18.374Z,3.43
2023-01-15T09:22:52.035Z,3.90
2023-01-15T09:25:20.349Z,3.60
2023-01-15T09:27:50.073Z,3.83
2023-01-15T09:30:21.459Z,4.43
2023-01-15T09:32:50.507Z,3.70
2023-01-15T09:35:18.905Z,3.90
2023-01-15T09:37:52.532Z,3.90
2023-01-15T09:40:40.546Z,3.63
2023-01-15T09:43:21.105Z,3.97
2023-01-15T09:46:09.535Z,3.30
2023-01-15T09:49:28.703Z,3.50
2023-01-15T09:52:24.033Z,3.50
2023-01-15T09:54:51.960Z,3.13
2023-01-15T09:57:22.371Z,3.40
2023-01-15T09:59:52.973Z,3.40
2023-01-15T10:02:45.628Z,3.43
2023-01-15T10:05:38.801Z,3.43
2023-01-15T10:09:00.421Z,3.30
2023-01-15T10:12:22.509Z,3.83
2023-01-15T10:15:25.356Z,3.70
2023-01-15T10:17:59.168Z,3.53
2023-01-15T10:20:58.033Z,3.53
2023-01-15T10:23:39.285Z,3.40
2023-01-15T10:26:36.401Z,3.40
2023-01-15T10:33:30.600Z,3.43
2023-01-15T10:36:19.181Z,3.57
2023-01-15T10:39:43.914Z,3.53
2023-01-15T10:43:24.257Z,3.67
2023-01-15T10:46:22.521Z,3.70
2023-01-15T10:48:57.598Z,3.70
2023-01-15T10:51:35.311Z,4.10
2023-01-15T10:54:19.102Z,3.30
2023-01-15T10:57:03.384Z,3.30
2023-01-15T10:59:51.860Z,3.30
2023-01-15T11:02:39.800Z,3.73
2023-01-15T11:05:15.466Z,3.70
2023-01-15T11:08:15.273Z,3.87
2023-01-15T11:10:44.808Z,3.70
2023-01-15T11:13:47.112Z,4.00
2023-01-15T11:16:46.379Z,3.93
2023-01-15T11:19:38.312Z,3.83
2023-01-15T11:22:10.456Z,3.57
2023-01-15T11:24:46.602Z,4.07
2023-01-15T11:27:20.363Z,3.30
2023-01-15T11:29:54.118Z,3.80
2023-01-15T11:32:50.216Z,3.87
2023-01-15T11:36:16.389Z,4.20
2023-01-15T11:38:53.014Z,4.40
2023-01-15T11:41:51.406Z,4.10
2023-01-15T11:44:39.895Z,4.00
2023-01-15T11:47:38.362Z,4.20
2023-01-15T11:50:37.907Z,4.53
2023-01-15T11:53:13.412Z,4.17
2023-01-15T11:55:58.200Z,4.40
2023-01-15T11:58:35.787Z,4.10
2023-01-15T12:01:08.599Z,4.30
2023-01-15T12:03:41.858Z,4.00
2023-01-15T12:06:42.794Z,4.53
2023-01-15T12:10:03.782Z,4.43
2023-01-15T12:13:11.958Z,4.27
2023-01-15T12:16:06.437Z,4.47
2023-01-15T12:19:22.872Z,4.90
2023-01-15T12:23:16.398Z,4.10
2023-01-15T12:31:36.044Z,4.23
2023-01-15T12:38:50.381Z,4.53
2023-01-15T12:42:02.617Z,4.83
2023-01-15T12:45:05.104Z,4.77
2023-01-15T12:48:06.625Z,4.30
2023-01-15T12:51:10.116Z,4.50
2023-01-15T12:54:03.749Z,4.60
2023-01-15T12:57:20.201Z,4.60
2023-01-15T13:00:06.268Z,4.67
2023-01-15T13:03:31.393Z,4.57
2023-01-15T13:06:12.365Z,4.53
2023-01-15T13:09:07.274Z,4.47
2023-01-15T13:12:56.908Z,4.80
2023-01-15T13:19:01.746Z,4.40
2023-01-15T13:35:51.939Z,5.10
2023-01-15T13:38:28.032Z,5.60
2023-01-15T13:41:06.123Z,5.10
2023-01-15T13:43:43.734Z,5.03
2023-01-15T13:46:22.263Z,5.43
2023-01-15T13:48:52.371Z,6.00
2023-01-15T13:51:29.061Z,5.37
2023-01-15T13:54:13.773Z,5.53
2023-01-15T13:56:41.890Z,5.37
2023-01-15T13:59:40.098Z,5.90
2023-01-15T14:12:11.554Z,4.73
2023-01-15T14:15:04.375Z,5.00
2023-01-15T14:17:51.484Z,5.03
2023-01-15T14:21:27.044Z,4.07
2023-01-15T14:24:30.036Z,5.00
2023-01-15T14:27:33.865Z,5.43
2023-01-15T14:30:40.237Z,4.80
2023-01-15T14:33:49.687Z,4.77
2023-01-15T14:36:29.352Z,4.90
2023-01-15T14:39:02.851Z,4.70
2023-01-15T14:41:33.600Z,4.27
2023-01-15T14:44:03.626Z,5.73
2023-01-15T14:46:43.517Z,4.77
2023-01-15T14:49:50.400Z,5.43
2023-01-15T14:52:24.724Z,4.83
2023-01-15T14:55:02.992Z,4.73
2023-01-15T14:57:34.387Z,4.63
2023-01-15T15:01:20.064Z,4.50
2023-01-15T15:04:01.846Z,4.37
2023-01-15T15:07:09.022Z,4.23
2023-01-15T15:10:02.445Z,4.20
2023-01-15T15:13:05.062Z,4.73
2023-01-15T15:15:50.652Z,5.23
2023-01-15T15:18:58.476Z,4.60
2023-01-15T15:21:30.450Z,5.40
2023-01-15T15:24:25.879Z,5.20
2023-01-15T15:26:56.945Z,5.13
2023-01-15T15:29:29.544Z,4.33
2023-01-15T15:32:00.125Z,4.87
2023-01-15T15:34:33.730Z,5.23
2023-01-15T15:37:15.574Z,5.10
2023-01-15T15:39:53.743Z,4.90
2023-01-15T15:42:53.527Z,4.50
2023-01-15T15:45:47.350Z,4.30
2023-01-15T15:48:44.606Z,4.43
2023-01-15T15:51:36.699Z,4.33
2023-01-15T15:54:26.315Z,5.20
2023-01-15T15:57:22.885Z,4.93
2023-01-15T16:00:24.079Z,5.10
2023-01-15T16:02:52.232Z,5.03
2023-01-15T16:05:22.733Z,4.53
2023-01-15T16:07:51.699Z,4.70
2023-01-15T16:10:32.207Z,4.90
2023-01-15T16:13:12.017Z,4.27
2023-01-15T16:15:50.841Z,4.70
2023-01-15T16:18:51.822Z,4.53
2023-01-15T16:21:29.035Z,4.60
2023-01-15T16:24:02.985Z,4.70
2023-01-15T16:26:58.944Z,4.53
2023-01-15T16:29:34.302Z,4.30
2023-01-15T16:32:15.434Z,4.17
2023-01-15T16:35:29.153Z,4.60
2023-01-15T16:43:22.604Z,5.40
2023-01-15T16:46:22.616Z,4.40
2023-01-15T16:49:44.506Z,4.43
2023-01-15T16:52:45.591Z,4.20
2023-01-15T16:59:28.010Z,4.40
2023-01-15T17:02:03.568Z,4.63
2023-01-15T17:18:59.495Z,3.30
2023-01-15T17:47:37.108Z,3.33
2023-01-15T18:09:46.346Z,3.90
2023-01-15T18:21:02.230Z,4.13
2023-01-15T18:23:35.469Z,3.87
2023-01-15T18:26:06.538Z,3.47
2023-01-15T18:28:44.321Z,4.13
2023-01-15T18:31:16.720Z,4.20
2023-01-15T18:33:50.764Z,4.37
2023-01-15T18:36:18.953Z,4.50
2023-01-15T18:38:50.023Z,4.77
2023-01-15T18:59:21.499Z,4.80
2023-01-15T19:08:05.748Z,3.70
2023-01-15T19:10:33.432Z,4.87
2023-01-15T19:13:03.039Z,5.43
2023-01-15T19:15:51.025Z,5.13
2023-01-15T19:25:40.371Z,4.90
2023-01-15T19:29:06.407Z,4.90
2023-01-15T19:39:18.353Z,5.23
2023-01-15T19:48:31.611Z,5.07
2023-01-15T19:50:58.952Z,5.10
2023-01-15T19:53:26.308Z,5.10
2023-01-15T19:55:53.878Z,5.53
2023-01-15T19:58:21.602Z,4.87
2023-01-15T20:00:49.071Z,4.67
2023-01-15T20:03:17.548Z,5.10
2023-01-15T20:05:45.442Z,4.97
2023-01-15T20:08:14.271Z,4.87
2023-01-15T20:21:41.564Z,4.97
2023-01-15T20:24:08.911Z,5.37
2023-01-15T20:26:36.528Z,4.80
2023-01-15T20:29:03.793Z,5.20
2023-01-15T20:31:31.223Z,5.20
2023-01-15T20:34:01.610Z,4.83
2023-01-15T20:36:33.663Z,5.87
2023-01-15T20:39:01.619Z,4.83
2023-01-15T20:41:47.541Z,5.77
2023-01-15T20:44:33.537Z,6.10
2023-01-15T20:50:42.462Z,5.23
2023-01-15T21:21:36.810Z,6.03
2023-01-15T21:28:06.052Z,6.03
2023-01-15T21:30:33.386Z,5.50
2023-01-15T21:33:02.017Z,5.67
2023-01-15T21:35:29.396Z,6.03
2023-01-15T21:45:06.457Z,6.37
2023-01-15T21:57:29.437Z,4.87
2023-01-15T21:59:57.168Z,4.50
2023-01-15T22:02:24.992Z,4.73
2023-01-15T22:06:28.083Z,5.10
2023-01-15T22:08:55.991Z,4.73
2023-01-15T22:11:24.030Z,4.70
2023-01-15T22:13:52.680Z,4.37
2023-01-15T22:30:59.121Z,4.37
2023-01-15T22:33:27.043Z,4.50
2023-01-15T22:35:58.887Z,4.83
2023-01-15T22:38:26.835Z,4.87
2023-01-15T22:40:54.315Z,5.30
2023-01-15T22:44:13.262Z,4.77
2023-01-15T22:46:40.564Z,5.13
2023-01-15T22:49:08.130Z,4.60
2023-01-15T23:01:24.533Z,4.07
2023-01-15T23:03:51.984Z,4.17
2023-01-15T23:06:19.503Z,4.03
2023-01-15T23:08:46.803Z,3.80
2023-01-15T23:11:16.480Z,4.17
2023-01-15T23:13:43.820Z,4.17
2023-01-15T23:16:11.432Z,4.03
2023-01-15T23:18:38.924Z,4.23
2023-01-15T23:21:16.585Z,3.87
2023-01-15T23:23:43.975Z,3.60
2023-01-15T23:26:14.870Z,3.90
2023-01-15T23:28:43.016Z,3.40
2023-01-15T23:31:11.673Z,3.50
2023-01-15T23:37:59.588Z,3.40
2023-01-15T23:40:27.059Z,3.07
2023-01-15T23:43:13.139Z,3.67
2023-01-15T23:45:59.604Z,3.47
2023-01-15T23:48:27.001Z,4.50
2023-01-15T23:50:54.324Z,3.23
2023-01-15T23:59:28.688Z,3.73
